createdAt,value
2019-03-03T07:27:08.467Z,10.27
2019-03-03T07:32:11.453Z,11.07
2019-03-03T07:37:14.420Z,12.43
2019-03-03T07:42:17.422Z,11.03
2019-03-03T07:47:20.357Z,8.07
2019-03-03T07:52:23.367Z,8.90
2019-03-03T07:57:27.180Z,7.97
2019-03-03T08:02:30.173Z,14.03
2019-03-03T08:07:33.123Z,12.10
2019-03-03T08:12:36.393Z,8.23
2019-03-03T08:17:39.580Z,15.83
2019-03-03T08:22:42.775Z,14.50
2019-03-03T08:27:46.278Z,9.70
2019-03-03T08:32:49.446Z,11.00
2019-03-03T08:38:14.694Z,10.70
2019-03-03T08:43:39.121Z,9.07
2019-03-03T08:48:59.563Z,11.70
2019-03-03T08:54:22.481Z,10.87
2019-03-03T08:59:35.249Z,6.30
2019-03-03T09:04:54.981Z,10.10
2019-03-03T09:10:25.331Z,11.47
2019-03-03T09:15:50.159Z,9.50
2019-03-03T09:21:04.067Z,7.03
2019-03-03T09:26:46.066Z,9.13
2019-03-03T09:32:11.797Z,8.70
2019-03-03T09:37:33.022Z,8.77
2019-03-03T09:42:45.474Z,5.07
2019-03-03T09:48:10.829Z,8.83
2019-03-03T09:53:22.409Z,4.30
2019-03-03T09:58:43.339Z,9.60
2019-03-03T10:04:04.672Z,8.63
2019-03-03T10:09:25.610Z,8.07
2019-03-03T10:14:50.561Z,5.53
2019-03-03T10:20:13.020Z,5.90
2019-03-03T10:25:34.776Z,4.40
2019-03-03T10:30:53.151Z,5.47
2019-03-03T10:36:14.535Z,4.00
2019-03-03T10:41:43.282Z,3.27
2019-03-03T10:47:05.934Z,4.03
2019-03-03T10:52:34.897Z,2.70
2019-03-03T10:58:00.331Z,3.10
2019-03-03T11:03:16.040Z,2.80
2019-03-03T11:08:41.699Z,3.07
2019-03-03T11:14:07.581Z,2.47
2019-03-03T11:19:24.519Z,4.73
2019-03-03T11:24:46.447Z,3.50
2019-03-03T11:30:14.875Z,3.50
2019-03-03T11:35:38.023Z,4.20
2019-03-03T11:41:03.451Z,3.27
2019-03-03T11:46:11.741Z,2.37
2019-03-03T11:51:46.607Z,3.30
2019-03-03T11:56:55.809Z,2.77
2019-03-03T12:02:17.151Z,2.80
2019-03-03T12:07:30.722Z,2.10
2019-03-03T12:12:51.337Z,2.57
2019-03-03T12:18:10.692Z,2.33
2019-03-03T12:23:43.802Z,6.07
2019-03-03T12:29:06.297Z,2.10
2019-03-03T12:34:39.676Z,3.70
2019-03-03T12:39:51.383Z,2.30
2019-03-03T12:45:04.866Z,2.97
2019-03-03T12:50:31.641Z,3.03
2019-03-03T12:55:52.544Z,2.53
2019-03-03T13:01:05.527Z,4.10
2019-03-03T13:06:33.720Z,2.60
2019-03-03T13:11:50.931Z,2.60
2019-03-03T13:17:13.434Z,2.57
2019-03-03T13:22:24.234Z,3.20
2019-03-03T13:27:52.484Z,3.43
2019-03-03T13:33:02.009Z,2.77
2019-03-03T13:38:23.346Z,2.90
2019-03-03T13:43:26.057Z,3.70
2019-03-03T13:48:28.798Z,3.47
2019-03-03T13:53:31.506Z,4.20
2019-03-03T13:58:34.316Z,3.60
2019-03-03T14:03:37.112Z,8.93
2019-03-03T14:08:39.833Z,6.33
2019-03-03T14:13:42.537Z,6.27
2019-03-03T14:18:45.280Z,5.80
2019-03-03T14:23:49.486Z,5.80
2019-03-03T14:28:52.424Z,6.40
2019-03-03T14:33:55.222Z,5.50
2019-03-03T14:38:57.940Z,4.50
2019-03-03T14:44:00.632Z,6.90
2019-03-03T14:49:03.345Z,4.57
2019-03-03T14:54:06.052Z,4.70
2019-03-03T14:59:08.750Z,7.53
2019-03-03T15:04:11.449Z,4.30
2019-03-03T15:09:19.783Z,3.97
2019-03-03T15:14:22.481Z,5.23
2019-03-03T15:19:25.177Z,3.83
2019-03-03T15:24:27.877Z,3.97
2019-03-03T15:29:30.594Z,4.03
2019-03-03T15:34:33.329Z,6.20
2019-03-03T15:39:36.129Z,3.40
2019-03-03T15:44:38.822Z,3.30
2019-03-03T15:49:41.523Z,3.27
2019-03-03T15:54:44.206Z,3.77
2019-03-03T15:59:47.007Z,3.50
2019-03-03T16:04:49.879Z,3.83
2019-03-03T16:09:53.251Z,3.70
2019-03-03T16:14:55.981Z,3.67
2019-03-03T16:19:58.809Z,3.47
2019-03-03T16:25:01.511Z,4.10
2019-03-03T16:30:04.790Z,3.67
2019-03-03T16:35:08.296Z,4.37
2019-03-03T16:40:13.888Z,10.30
2019-03-03T16:45:16.607Z,6.80
2019-03-03T16:50:19.435Z,10.80
2019-03-03T16:55:22.234Z,9.03
2019-03-03T17:00:24.931Z,8.50
2019-03-03T17:05:27.649Z,14.87
2019-03-03T17:10:32.030Z,8.80
2019-03-03T17:15:34.769Z,7.67
2019-03-03T17:20:37.465Z,9.53
2019-03-03T17:25:40.181Z,12.80
2019-03-03T17:30:42.980Z,14.63
2019-03-03T17:35:46.115Z,12.40
2019-03-03T17:40:48.842Z,12.50
2019-03-03T17:45:51.566Z,10.53
2019-03-03T17:50:54.275Z,11.90
2019-03-03T17:55:56.971Z,22.67
2019-03-03T18:00:59.670Z,12.60
2019-03-03T18:06:02.376Z,11.47
2019-03-03T18:11:05.099Z,13.63
2019-03-03T18:16:07.778Z,10.63
2019-03-03T18:21:10.500Z,9.93
2019-03-03T18:26:13.240Z,11.67
2019-03-03T18:31:15.935Z,9.73
2019-03-03T18:36:18.661Z,14.80
2019-03-03T18:41:21.363Z,24.20
2019-03-03T18:46:24.051Z,16.50
2019-03-03T18:51:26.864Z,10.03
2019-03-03T18:56:29.565Z,9.60
2019-03-03T19:01:32.277Z,12.93
2019-03-03T19:06:35.084Z,6.00
2019-03-03T19:11:40.077Z,10.10
2019-03-03T19:16:45.481Z,7.57
2019-03-03T19:21:49.953Z,8.83
2019-03-03T19:26:52.719Z,5.90
2019-03-03T19:31:55.427Z,5.43
2019-03-03T19:36:59.202Z,9.33
2019-03-03T19:42:02.041Z,13.63
2019-03-03T19:47:06.913Z,7.13
2019-03-03T19:52:09.930Z,9.60
2019-03-03T19:57:12.786Z,7.03
2019-03-03T20:02:18.562Z,5.13
2019-03-03T20:07:21.249Z,9.50
2019-03-03T20:12:23.988Z,11.33
2019-03-03T20:17:26.702Z,8.33
2019-03-03T20:22:29.432Z,10.00
2019-03-03T20:27:32.142Z,7.23
2019-03-03T20:32:34.840Z,9.93
2019-03-03T20:37:37.524Z,13.17
2019-03-03T20:42:40.268Z,5.07
2019-03-03T20:47:42.972Z,10.60
2019-03-03T20:52:45.769Z,7.03
2019-03-03T20:57:48.506Z,15.00
2019-03-03T21:02:51.218Z,9.27
2019-03-03T21:07:54.050Z,8.97
2019-03-03T21:12:56.746Z,13.77
2019-03-03T21:17:59.457Z,6.37
2019-03-03T21:23:02.167Z,17.07
2019-03-03T21:28:04.879Z,10.23
2019-03-03T21:33:07.595Z,5.30
2019-03-03T21:38:10.309Z,10.40
2019-03-03T21:43:13.027Z,11.23
2019-03-03T21:48:15.704Z,5.63
2019-03-03T21:53:18.422Z,10.40
2019-03-03T21:58:21.122Z,9.83
2019-03-03T22:03:23.847Z,9.83
2019-03-03T22:08:26.604Z,8.10
2019-03-03T22:13:29.314Z,6.30
2019-03-03T22:18:32.046Z,9.70
2019-03-03T22:23:34.743Z,3.63
2019-03-03T22:28:37.465Z,6.13
2019-03-03T22:33:40.167Z,7.60
2019-03-03T22:38:42.875Z,6.23
2019-03-03T22:43:45.579Z,6.07
2019-03-03T22:48:48.287Z,3.23
2019-03-03T22:53:50.989Z,8.93
2019-03-03T22:58:53.675Z,5.00
2019-03-03T23:04:43.318Z,5.50
2019-03-03T23:10:40.121Z,9.20
2019-03-03T23:16:58.161Z,5.13
2019-03-03T23:23:18.018Z,9.73
2019-03-03T23:28:22.531Z,4.40
2019-03-03T23:33:25.224Z,6.77
2019-03-03T23:38:27.923Z,4.17
2019-03-03T23:43:30.628Z,3.43
2019-03-03T23:48:33.746Z,8.23
2019-03-03T23:53:36.450Z,4.93
2019-03-03T23:58:39.163Z,7.53
